Time;durP1;ratioP1;P1;durP2;ratioP2;P2;SDS_P1;SDS_P2;PMS_P1;PMS_P2;Temp;Humidity;BMP_temperature;BMP_pressure;BME280_temperature;BME280_humidity;BME280_pressure;Samples;Min_cycle;Max_cycle;Signal;HPM_P1;HPM_P2
2023/04/25 00:00:06;;;;;;;5.53;4.97;;;;;;;11.14;75.92;99467.81;10257527;28;20055;-53
2023/04/25 00:05:08;;;;;;;5.88;5.28;;;;;;;10.94;76.40;99475.84;10253638;28;20047;-57
2023/04/25 00:10:11;;;;;;;5.50;4.93;;;;;;;10.94;77.92;99470.53;10260842;28;20065;-53
2023/04/25 00:15:13;;;;;;;6.22;5.28;;;;;;;11.07;78.36;99472.03;10251175;28;20695;-53
2023/04/25 00:20:17;;;;;;;6.10;5.50;;;;;;;11.03;78.57;99470.63;10261140;28;20081;-53
2023/04/25 00:25:18;;;;;;;6.40;5.85;;;;;;;11.03;78.83;99463.47;10259285;28;20262;-53
2023/04/25 00:30:20;;;;;;;5.60;5.00;;;;;;;11.00;77.75;99462.94;10251537;28;20526;-53
2023/04/25 00:35:21;;;;;;;5.53;4.78;;;;;;;11.11;78.74;99478.75;10265235;28;20082;-54
2023/04/25 00:40:23;;;;;;;6.00;5.40;;;;;;;11.11;78.84;99484.06;10261433;28;20060;-54
2023/04/25 00:45:29;;;;;;;5.72;5.20;;;;;;;11.04;78.56;99480.31;10255004;28;20140;-54
2023/04/25 00:50:35;;;;;;;5.90;5.30;;;;;;;11.06;78.87;99478.31;10276291;28;20399;-53
2023/04/25 00:55:36;;;;;;;6.07;4.72;;;;;;;11.04;78.66;99467.81;10258255;28;20618;-54
2023/04/25 01:00:39;;;;;;;5.45;4.85;;;;;;;11.06;78.29;99471.16;10263512;28;20070;-54
2023/04/25 01:05:41;;;;;;;6.38;5.78;;;;;;;10.80;78.45;99444.38;10262826;28;20053;-54
2023/04/25 01:10:43;;;;;;;5.10;4.60;;;;;;;10.83;77.97;99460.03;10261280;28;20046;-54
2023/04/25 01:15:45;;;;;;;5.20;4.70;;;;;;;10.74;79.33;99468.91;10258740;28;20061;-53
2023/04/25 01:20:51;;;;;;;5.25;4.38;;;;;;;10.81;77.90;99456.69;10257525;28;20049;-53
2023/04/25 01:25:53;;;;;;;5.53;4.65;;;;;;;10.75;79.84;99446.63;10258900;28;20043;-53
2023/04/25 01:30:56;;;;;;;5.50;5.00;;;;;;;10.91;79.73;99446.84;10257263;28;20168;-53
2023/04/25 01:35:57;;;;;;;5.05;4.55;;;;;;;10.92;78.40;99453.84;10263634;28;20046;-53
2023/04/25 01:40:59;;;;;;;5.78;5.28;;;;;;;10.94;78.56;99456.34;10258940;28;20061;-54
2023/04/25 01:46:01;;;;;;;4.25;3.88;;;;;;;11.00;78.31;99470.91;10257705;28;20086;-55
2023/04/25 01:51:03;;;;;;;6.18;4.00;;;;;;;10.84;77.73;99450.22;10260632;28;20750;-52
2023/04/25 01:56:05;;;;;;;4.90;4.40;;;;;;;10.86;76.81;99457.09;10258023;28;20063;-53
2023/04/25 02:01:07;;;;;;;4.90;4.40;;;;;;;10.96;76.34;99476.53;10268507;28;20054;-53
2023/04/25 02:06:08;;;;;;;4.65;3.97;;;;;;;10.95;77.36;99484.69;10258957;28;20427;-53
2023/04/25 02:11:11;;;;;;;4.95;4.45;;;;;;;10.94;75.99;99477.66;10265741;28;20292;-53
2023/04/25 02:16:13;;;;;;;4.88;4.38;;;;;;;10.89;76.68;99464.78;10258336;28;20070;-56
2023/04/25 02:21:15;;;;;;;5.15;4.25;;;;;;;10.89;76.42;99464.78;10254483;28;20140;-56
2023/04/25 02:26:16;;;;;;;4.78;3.60;;;;;;;10.78;76.90;99455.16;10256490;28;20475;-54
2023/04/25 02:31:18;;;;;;;4.75;4.25;;;;;;;10.89;74.39;99464.78;10262757;28;20217;-53
2023/04/25 02:36:20;;;;;;;4.53;3.95;;;;;;;10.80;76.01;99460.34;10261628;28;20050;-54
2023/04/25 02:41:21;;;;;;;7.15;5.03;;;;;;;10.84;76.38;99463.53;10258965;28;20042;-52
2023/04/25 02:46:23;;;;;;;5.28;4.38;;;;;;;10.86;76.00;99456.25;10254944;28;20055;-52
2023/04/25 02:51:39;;;;;;;5.72;4.60;;;;;;;10.80;75.99;99465.66;10256268;28;20057;-53
2023/04/25 02:56:41;;;;;;;5.43;4.93;;;;;;;10.84;75.55;99460.88;10254753;28;20078;-53
2023/04/25 03:01:43;;;;;;;5.20;4.70;;;;;;;10.82;74.77;99471.66;10251864;28;20583;-53
2023/04/25 03:06:44;;;;;;;4.88;4.40;;;;;;;10.77;75.40;99452.63;10254478;28;20050;-53
2023/04/25 03:11:46;;;;;;;6.03;5.43;;;;;;;10.66;74.43;99466.97;10252241;28;20077;-53
2023/04/25 03:16:47;;;;;;;8.63;5.80;;;;;;;10.63;76.12;99469.03;10258557;28;20108;-53
2023/04/25 03:21:50;;;;;;;6.55;5.88;;;;;;;10.64;76.22;99466.25;10258057;28;20050;-53
2023/04/25 03:26:52;;;;;;;6.95;5.97;;;;;;;10.66;76.35;99458.13;10261711;28;20074;-53
2023/04/25 03:31:53;;;;;;;7.03;5.43;;;;;;;10.69;75.95;99466.66;10260533;28;20058;-54
2023/04/25 03:36:55;;;;;;;7.53;5.68;;;;;;;10.73;76.54;99464.53;10261361;28;20160;-54
2023/04/25 03:41:57;;;;;;;6.55;5.93;;;;;;;10.72;75.36;99477.03;10256024;28;20085;-53
2023/04/25 03:46:58;;;;;;;7.43;6.25;;;;;;;10.68;75.31;99482.78;10258136;28;20548;-53
2023/04/25 03:52:00;;;;;;;7.00;6.40;;;;;;;10.78;75.43;99483.59;10256132;28;20059;-53
2023/04/25 03:57:02;;;;;;;7.28;6.28;;;;;;;10.70;76.11;99481.63;10255124;28;20693;-53
2023/04/25 04:02:03;;;;;;;7.97;6.55;;;;;;;10.69;75.87;99484.44;10252879;28;20137;-53
2023/04/25 04:07:05;;;;;;;8.52;6.22;;;;;;;10.66;75.78;99490.91;10255815;28;20608;-53
2023/04/25 04:12:06;;;;;;;6.65;6.05;;;;;;;10.66;75.65;99490.06;10267145;28;20073;-52
2023/04/25 04:17:08;;;;;;;8.05;7.25;;;;;;;10.64;75.31;99500.00;10263951;28;20137;-53
2023/04/25 04:22:10;;;;;;;9.55;6.75;;;;;;;10.64;75.91;99497.34;10279993;28;20050;-52
2023/04/25 04:27:12;;;;;;;7.97;6.30;;;;;;;10.61;76.01;99517.97;10265977;28;20522;-52
2023/04/25 04:32:15;;;;;;;9.68;5.90;;;;;;;10.63;73.30;99523.13;10278409;28;20077;-52
2023/04/25 04:37:17;;;;;;;8.18;5.75;;;;;;;10.33;69.97;99532.06;10262412;28;20050;-53
2023/04/25 04:42:19;;;;;;;6.20;5.38;;;;;;;10.29;69.20;99539.50;10266475;28;20179;-52
2023/04/25 04:47:20;;;;;;;9.02;4.63;;;;;;;10.20;66.47;99535.84;10265893;28;20140;-53
2023/04/25 04:52:22;;;;;;;8.05;4.70;;;;;;;10.29;66.67;99538.66;10280309;28;20629;-59
2023/04/25 04:57:23;;;;;;;6.90;4.68;;;;;;;10.21;64.77;99550.81;10262126;28;20487;-54
2023/04/25 05:02:25;;;;;;;6.63;4.55;;;;;;;10.27;66.54;99563.56;10275727;28;20152;-52
2023/04/25 05:07:26;;;;;;;10.82;4.95;;;;;;;10.10;64.97;99556.25;10262407;28;20053;-52
2023/04/25 05:12:28;;;;;;;7.85;4.60;;;;;;;10.09;64.55;99574.03;10271999;28;20111;-54
2023/04/25 05:17:29;;;;;;;10.20;5.75;;;;;;;10.10;64.52;99582.84;10261722;28;20225;-54
2023/04/25 05:22:31;;;;;;;10.82;6.07;;;;;;;10.10;64.38;99580.19;10266730;28;20100;-53
2023/04/25 05:27:33;;;;;;;7.68;5.32;;;;;;;10.19;66.50;99579.38;10270267;28;20080;-53
2023/04/25 05:32:35;;;;;;;7.40;5.35;;;;;;;10.22;65.14;99587.09;10270727;28;20062;-54
2023/04/25 05:37:37;;;;;;;8.35;5.10;;;;;;;10.40;65.35;99586.44;10267890;28;20069;-54
2023/04/25 05:42:38;;;;;;;7.00;5.07;;;;;;;10.47;64.10;99592.88;10268464;28;20149;-53
2023/04/25 05:47:40;;;;;;;6.60;4.32;;;;;;;10.50;63.64;99587.28;10266344;28;20054;-53
2023/04/25 05:52:41;;;;;;;7.68;4.13;;;;;;;10.66;62.69;99596.50;10268838;28;20187;-53
2023/04/25 05:57:44;;;;;;;6.00;4.00;;;;;;;10.69;62.84;99602.41;10267764;28;20042;-54
2023/04/25 06:02:46;;;;;;;7.45;5.25;;;;;;;10.62;62.05;99585.31;10270432;28;20773;-55
2023/04/25 06:07:48;;;;;;;8.43;4.60;;;;;;;10.71;61.59;99608.44;10262890;28;20061;-54
2023/04/25 06:12:49;;;;;;;5.53;4.40;;;;;;;10.77;61.79;99601.72;10271551;28;22029;-60
2023/04/25 06:17:51;;;;;;;7.78;4.80;;;;;;;10.82;61.93;99611.94;10261625;28;20053;-54
2023/04/25 06:22:52;;;;;;;7.10;3.85;;;;;;;10.88;62.88;99601.53;10258255;28;20134;-54
2023/04/25 06:27:54;;;;;;;6.93;3.60;;;;;;;10.88;59.75;99579.41;10269319;28;20534;-54
2023/04/25 06:32:55;;;;;;;6.85;3.85;;;;;;;11.02;58.98;99610.94;10255206;28;20058;-54
2023/04/25 06:37:57;;;;;;;7.25;3.67;;;;;;;11.16;60.10;99603.50;10263589;28;20046;-54
2023/04/25 06:42:59;;;;;;;6.63;3.88;;;;;;;11.09;59.22;99603.22;10265177;28;20692;-54
2023/04/25 06:48:00;;;;;;;4.57;3.33;;;;;;;11.23;59.31;99599.25;10264302;28;20085;-53
2023/04/25 06:53:02;;;;;;;4.45;3.50;;;;;;;11.07;59.98;99599.88;10267231;28;20051;-57
2023/04/25 06:58:04;;;;;;;6.35;3.30;;;;;;;11.29;59.49;99599.53;10267004;28;20137;-55
2023/04/25 07:03:05;;;;;;;7.45;3.50;;;;;;;11.48;58.54;99600.44;10268552;28;20049;-54
2023/04/25 07:08:07;;;;;;;5.20;3.00;;;;;;;11.73;57.08;99617.63;10267795;28;20095;-55
2023/04/25 07:13:09;;;;;;;2.53;2.13;;;;;;;11.89;54.35;99617.00;10266769;28;20128;-54
2023/04/25 07:18:10;;;;;;;6.88;3.10;;;;;;;11.91;54.76;99620.34;10246765;28;22011;-55
2023/04/25 07:23:13;;;;;;;5.32;3.00;;;;;;;12.00;55.75;99629.34;10276828;28;20046;-55
2023/04/25 07:28:15;;;;;;;4.22;3.15;;;;;;;11.91;54.75;99611.53;10265431;28;20059;-54
2023/04/25 07:33:20;;;;;;;4.30;3.30;;;;;;;11.67;56.04;99628.88;10266002;28;20065;-52
2023/04/25 07:38:22;;;;;;;4.57;3.35;;;;;;;11.69;55.93;99629.56;10281706;28;20692;-55
2023/04/25 07:43:24;;;;;;;4.75;3.63;;;;;;;11.55;56.14;99638.88;10279683;28;20141;-54
2023/04/25 07:48:26;;;;;;;6.10;2.72;;;;;;;11.83;55.03;99641.59;10269728;28;20051;-54
2023/04/25 07:53:27;;;;;;;3.05;1.90;;;;;;;11.76;52.88;99643.16;10267011;28;20125;-54
2023/04/25 07:58:29;;;;;;;6.90;2.70;;;;;;;11.87;54.98;99650.97;10267389;28;20784;-54
2023/04/25 08:03:30;;;;;;;3.50;2.65;;;;;;;11.84;53.55;99646.78;10263483;28;20602;-55
2023/04/25 08:08:32;;;;;;;3.70;3.13;;;;;;;11.98;52.98;99653.50;10271354;28;20202;-55
2023/04/25 08:13:34;;;;;;;4.72;2.47;;;;;;;12.41;51.76;99663.66;10265067;23;20057;-73
2023/04/25 08:18:35;;;;;;;6.95;3.70;;;;;;;12.14;50.80;99673.34;10256029;28;20457;-73
2023/04/25 08:23:37;;;;;;;3.70;2.50;;;;;;;12.15;50.61;99669.69;10266750;28;20148;-74
2023/04/25 08:28:39;;;;;;;2.70;2.50;;;;;;;12.46;50.47;99688.91;10247399;28;20058;-73
2023/04/25 08:33:40;;;;;;;4.40;2.58;;;;;;;12.77;49.11;99701.09;10269258;28;20165;-73
2023/04/25 08:38:41;;;;;;;4.68;3.08;;;;;;;12.78;48.94;99700.09;10269627;28;20115;-73
2023/04/25 08:43:44;;;;;;;4.93;2.78;;;;;;;12.89;47.65;99702.53;10284740;28;20042;-76
2023/04/25 08:48:46;;;;;;;4.50;3.08;;;;;;;12.61;47.52;99696.41;10289768;28;20078;-76
2023/04/25 08:53:50;;;;;;;4.60;2.92;;;;;;;12.85;48.23;99711.84;10271144;28;20680;-73
2023/04/25 08:58:58;;;;;;;4.40;3.28;;;;;;;13.22;47.76;99717.03;10278117;28;20381;-72
2023/04/25 09:04:00;;;;;;;3.53;2.85;;;;;;;13.60;45.45;99708.84;10267004;28;20053;-72
2023/04/25 09:09:06;;;;;;;3.92;2.90;;;;;;;13.96;46.38;99716.75;10272504;28;20201;-72
2023/04/25 09:14:22;;;;;;;7.85;3.97;;;;;;;13.61;46.46;99724.72;10258659;28;21334;-72
2023/04/25 09:19:28;;;;;;;5.80;4.28;;;;;;;13.70;43.58;99735.50;10267834;28;20119;-72
2023/04/25 09:24:50;;;;;;;5.75;3.65;;;;;;;13.88;45.44;99722.06;10261742;28;20065;-70
2023/04/25 09:30:02;;;;;;;5.32;3.67;;;;;;;14.46;43.72;99740.09;10250087;28;20132;-73
2023/04/25 09:35:04;;;;;;;4.38;3.97;;;;;;;13.86;42.64;99732.94;10247442;28;20046;-73
2023/04/25 09:40:07;;;;;;;4.97;2.83;;;;;;;13.28;42.73;99753.00;10266491;28;20072;-74
2023/04/25 09:45:13;;;;;;;5.10;3.27;;;;;;;13.15;43.67;99763.22;10273168;28;20057;-71
2023/04/25 09:50:16;;;;;;;4.03;2.90;;;;;;;13.95;44.44;99760.56;10255242;28;20964;-71
2023/04/25 09:55:18;;;;;;;3.83;3.22;;;;;;;14.41;40.86;99763.84;10265014;28;20050;-71
2023/04/25 10:00:21;;;;;;;4.13;3.70;;;;;;;14.10;42.19;99755.47;10264662;28;20435;-72
2023/04/25 10:05:25;;;;;;;3.83;2.90;;;;;;;14.56;41.07;99761.41;10263551;28;21470;-74
2023/04/25 10:10:35;;;;;;;4.32;3.35;;;;;;;14.67;41.71;99771.00;10248555;28;20046;-72
2023/04/25 10:15:38;;;;;;;5.68;3.22;;;;;;;15.32;40.18;99775.66;10265591;28;20057;-72
2023/04/25 10:20:40;;;;;;;6.00;4.37;;;;;;;14.92;41.31;99776.44;10259662;28;20809;-72
2023/04/25 10:25:43;;;;;;;4.88;3.63;;;;;;;14.89;41.16;99774.09;10263763;28;20435;-73
2023/04/25 10:31:17;;;;;;;6.68;3.80;;;;;;;14.47;40.48;99792.66;10266399;28;20070;-73
2023/04/25 10:36:23;;;;;;;5.57;4.78;;;;;;;14.04;43.51;99794.41;10205207;28;20063;-72
2023/04/25 10:41:24;;;;;;;5.43;3.53;;;;;;;13.95;45.41;99806.06;10251841;28;20057;-72
2023/04/25 10:46:29;;;;;;;4.03;3.17;;;;;;;13.69;46.83;99808.69;10267431;28;20110;-72
2023/04/25 10:51:32;;;;;;;4.95;3.33;;;;;;;13.61;46.42;99817.50;10270690;28;20052;-72
2023/04/25 10:56:54;;;;;;;5.30;3.42;;;;;;;13.58;46.39;99812.44;10267261;28;20712;-72
2023/04/25 11:01:55;;;;;;;3.67;3.05;;;;;;;13.49;46.30;99816.88;10269416;28;20117;-72
2023/04/25 11:07:18;;;;;;;4.97;2.85;;;;;;;13.37;46.11;99826.13;10267949;28;20128;-72
2023/04/25 11:12:20;;;;;;;4.60;3.00;;;;;;;14.54;43.78;99824.16;10264804;28;20055;-72
2023/04/25 11:17:25;;;;;;;4.07;2.85;;;;;;;14.71;43.19;99817.88;10264263;28;20054;-72
2023/04/25 11:22:27;;;;;;;5.63;4.45;;;;;;;14.09;44.11;99816.19;10256547;28;20054;-72
2023/04/25 11:27:29;;;;;;;3.70;2.55;;;;;;;13.95;43.62;99822.13;10262298;28;20636;-73
2023/04/25 11:32:30;;;;;;;6.07;4.07;;;;;;;13.03;45.31;99834.75;10255433;28;20068;-72
2023/04/25 11:37:32;;;;;;;6.03;3.53;;;;;;;13.14;46.36;99815.00;10262050;28;20050;-71
2023/04/25 11:42:43;;;;;;;7.10;3.55;;;;;;;15.86;40.23;99820.81;10265854;28;20387;-72
2023/04/25 11:47:44;;;;;;;3.28;1.85;;;;;;;15.61;39.25;99825.31;10243491;28;20046;-72
2023/04/25 11:52:47;;;;;;;4.13;2.05;;;;;;;14.57;40.30;99834.53;10244103;28;20132;-73
2023/04/25 11:57:52;;;;;;;6.10;3.53;;;;;;;14.04;39.67;99842.59;10243154;28;20741;-72
2023/04/25 12:02:57;;;;;;;5.30;3.35;;;;;;;13.47;41.50;99852.81;10259515;28;20062;-73
2023/04/25 12:08:16;;;;;;;5.97;2.33;;;;;;;13.13;40.87;99851.56;10246448;28;20061;-72
2023/04/25 12:13:25;;;;;;;6.40;2.50;;;;;;;13.34;42.17;99848.66;10261051;28;20572;-72
2023/04/25 12:18:27;;;;;;;7.10;5.88;;;;;;;13.52;42.02;99853.19;10258724;28;20165;-72
2023/04/25 12:23:30;;;;;;;4.97;2.83;;;;;;;13.65;40.87;99856.31;10260938;28;20148;-73
2023/04/25 12:28:32;;;;;;;4.63;2.70;;;;;;;13.59;40.48;99854.25;10313506;28;20861;-73
2023/04/25 12:33:36;;;;;;;4.20;2.60;;;;;;;13.20;42.02;99857.16;10276070;28;20060;-73
2023/04/25 12:38:40;;;;;;;8.13;5.85;;;;;;;13.15;42.86;99867.44;10246117;28;20057;-72
2023/04/25 12:43:41;;;;;;;4.72;3.53;;;;;;;13.33;42.96;99865.66;10255092;28;20047;-73
2023/04/25 12:48:43;;;;;;;5.50;3.45;;;;;;;13.61;42.94;99870.97;10268676;28;20061;-73
2023/04/25 12:53:44;;;;;;;5.55;3.67;;;;;;;13.82;42.05;99867.97;10276518;28;20080;-73
2023/04/25 12:58:46;;;;;;;9.43;4.40;;;;;;;13.89;41.67;99868.22;10258712;28;20041;-72
2023/04/25 13:03:48;;;;;;;5.93;3.08;;;;;;;13.90;41.50;99876.09;10271869;28;20141;-73
2023/04/25 13:08:51;;;;;;;8.57;2.97;;;;;;;13.95;40.69;99879.13;10272098;28;20073;-70
2023/04/25 13:13:53;;;;;;;4.85;3.03;;;;;;;14.21;41.19;99881.00;10268197;28;20517;-73
2023/04/25 13:18:56;;;;;;;5.30;2.58;;;;;;;14.31;39.96;99878.25;10271986;28;20553;-72
2023/04/25 13:23:57;;;;;;;6.57;3.92;;;;;;;14.55;39.03;99874.06;10266560;28;20066;-71
2023/04/25 13:29:00;;;;;;;7.50;4.03;;;;;;;14.33;39.42;99873.56;10268484;28;20181;-77
2023/04/25 13:34:01;;;;;;;5.22;2.15;;;;;;;14.09;38.77;99874.22;10275001;28;20861;-73
2023/04/25 13:39:04;;;;;;;3.08;2.25;;;;;;;13.46;39.06;99869.81;10277010;28;20050;-71
2023/04/25 13:44:06;;;;;;;5.82;3.67;;;;;;;13.63;39.72;99874.34;10274537;28;20073;-74
2023/04/25 13:49:07;;;;;;;5.00;3.13;;;;;;;13.50;40.18;99887.25;10275641;28;20171;-74
2023/04/25 13:54:13;;;;;;;4.97;2.78;;;;;;;13.61;38.81;99887.03;10274153;28;20054;-73
2023/04/25 13:59:15;;;;;;;9.00;2.80;;;;;;;13.81;39.51;99887.72;10260708;28;20434;-74
2023/04/25 14:04:16;;;;;;;7.05;2.33;;;;;;;13.75;38.56;99885.63;10274733;28;20477;-74
2023/04/25 14:09:19;;;;;;;7.10;3.03;;;;;;;14.24;37.99;99888.72;10277975;28;20055;-74
2023/04/25 14:14:21;;;;;;;5.13;2.50;;;;;;;14.76;37.17;99898.63;10282205;28;20428;-72
2023/04/25 14:19:23;;;;;;;4.20;2.42;;;;;;;14.54;35.90;99899.13;10290229;28;20140;-76
2023/04/25 14:24:25;;;;;;;4.10;1.77;;;;;;;14.18;35.74;99891.19;10282391;28;20049;-76
2023/04/25 14:29:26;;;;;;;2.90;1.75;;;;;;;13.74;37.35;99887.47;10312943;28;20046;-75
2023/04/25 14:34:28;;;;;;;5.80;1.92;;;;;;;13.58;37.66;99893.50;10330194;28;20176;-75
2023/04/25 14:39:29;;;;;;;5.78;1.90;;;;;;;13.29;37.86;99893.69;10298109;28;21122;-73
2023/04/25 14:44:30;;;;;;;3.65;2.00;;;;;;;13.46;38.57;99893.91;10309504;28;20470;-73
2023/04/25 14:49:32;;;;;;;4.82;1.92;;;;;;;13.31;37.92;99905.06;10290231;28;20085;-77
2023/04/25 14:54:34;;;;;;;5.30;2.13;;;;;;;13.36;38.21;99913.50;10295794;28;20055;-74
2023/04/25 14:59:35;;;;;;;5.50;2.10;;;;;;;13.30;37.11;99922.09;10280605;28;20336;-76
2023/04/25 15:04:37;;;;;;;2.90;1.90;;;;;;;13.07;37.56;99917.13;10278297;28;20057;-75
2023/04/25 15:09:38;;;;;;;3.22;1.85;;;;;;;13.06;38.04;99925.28;10289864;28;20050;-73
2023/04/25 15:14:40;;;;;;;3.95;1.90;;;;;;;13.22;38.76;99920.16;10287117;28;20106;-75
2023/04/25 15:19:41;;;;;;;6.35;2.13;;;;;;;12.96;39.14;99932.53;10294931;28;20506;-73
2023/04/25 15:24:42;;;;;;;2.30;1.70;;;;;;;13.03;38.08;99939.81;10266526;28;20062;-73
2023/04/25 15:29:44;;;;;;;3.80;1.58;;;;;;;12.90;37.29;99941.97;10275374;28;20054;-76
2023/04/25 15:34:45;;;;;;;4.15;1.60;;;;;;;13.06;36.49;99941.31;10282764;28;20058;-75
2023/04/25 15:39:47;;;;;;;4.50;2.22;;;;;;;13.27;37.32;99931.25;10276355;28;20768;-75
2023/04/25 15:44:48;;;;;;;2.60;2.30;;;;;;;13.20;38.95;99937.34;10279833;28;20066;-74
2023/04/25 15:49:49;;;;;;;6.32;1.80;;;;;;;13.44;38.52;99939.50;10261380;28;20770;-74
2023/04/25 15:54:51;;;;;;;4.57;1.80;;;;;;;13.56;38.29;99934.78;10276584;28;20054;-75
2023/04/25 15:59:53;;;;;;;5.28;2.10;;;;;;;13.35;39.28;99935.88;10275099;28;20149;-76
2023/04/25 16:04:55;;;;;;;3.83;1.60;;;;;;;13.61;39.58;99937.84;10280577;28;20097;-75
2023/04/25 16:09:56;;;;;;;4.82;1.90;;;;;;;13.65;38.92;99931.19;10285562;28;20201;-79
2023/04/25 16:14:58;;;;;;;4.57;1.65;;;;;;;13.74;37.96;99930.28;10259466;28;20129;-76
2023/04/25 16:20:02;;;;;;;3.25;1.63;;;;;;;13.63;36.76;99946.56;10282119;28;20058;-78
2023/04/25 16:25:04;;;;;;;2.78;1.85;;;;;;;13.56;36.86;99935.63;10280682;28;20145;-74
2023/04/25 16:30:08;;;;;;;3.83;1.58;;;;;;;13.52;35.88;99941.41;10275471;28;20679;-76
2023/04/25 16:35:09;;;;;;;5.37;1.73;;;;;;;13.20;36.47;99953.38;10286804;28;20050;-77
2023/04/25 16:40:11;;;;;;;3.33;1.55;;;;;;;12.99;37.70;99958.94;10290807;28;20062;-76
2023/04/25 16:45:13;;;;;;;3.22;1.65;;;;;;;13.11;37.17;99964.97;10271715;28;21060;-74
2023/04/25 16:50:15;;;;;;;6.93;2.35;;;;;;;13.00;38.78;99969.50;10278758;28;20061;-74
2023/04/25 16:55:17;;;;;;;4.53;1.65;;;;;;;12.94;38.66;99975.41;10288077;28;20702;-74
2023/04/25 17:00:18;;;;;;;3.92;2.25;;;;;;;12.86;38.29;99972.63;10283549;28;20145;-74
2023/04/25 17:05:20;;;;;;;4.78;1.73;;;;;;;12.85;38.80;99970.94;10261015;28;20367;-74
2023/04/25 17:10:22;;;;;;;3.75;1.50;;;;;;;12.92;39.06;99974.72;10283872;28;20620;-75
2023/04/25 17:15:24;;;;;;;5.53;2.35;;;;;;;12.94;39.31;99980.78;10281061;28;20105;-74
2023/04/25 17:20:25;;;;;;;2.80;1.65;;;;;;;13.01;39.30;99987.19;10287315;28;20062;-74
2023/04/25 17:25:27;;;;;;;3.53;1.40;;;;;;;12.99;38.58;99988.34;10273963;28;20050;-76
2023/04/25 17:30:28;;;;;;;11.10;1.77;;;;;;;13.03;40.43;100000.41;10297483;28;20058;-77
2023/04/25 17:35:32;;;;;;;4.75;1.58;;;;;;;12.88;39.14;99997.34;10314039;28;20046;-74
2023/04/25 17:40:34;;;;;;;5.30;1.60;;;;;;;12.80;39.09;100005.25;10274709;28;20054;-74
2023/04/25 17:45:35;;;;;;;3.90;1.70;;;;;;;12.59;39.43;100006.25;10283496;28;20054;-72
2023/04/25 17:50:37;;;;;;;4.65;1.30;;;;;;;12.52;39.72;100008.69;10274272;28;20053;-75
2023/04/25 17:55:42;;;;;;;4.97;2.28;;;;;;;12.53;39.75;100020.19;10271823;28;20060;-76
2023/04/25 18:00:44;;;;;;;5.25;1.40;;;;;;;12.25;39.36;100022.75;10305827;28;21002;-76
2023/04/25 18:05:45;;;;;;;4.53;1.90;;;;;;;11.71;40.19;100037.34;10268431;28;20441;-75
2023/04/25 18:10:47;;;;;;;3.70;1.88;;;;;;;11.72;39.60;100047.03;10261106;28;20799;-74
2023/04/25 18:15:50;;;;;;;5.68;1.98;;;;;;;11.88;40.14;100050.03;10265978;28;20149;-75
2023/04/25 18:20:51;;;;;;;3.75;1.77;;;;;;;11.88;39.93;100063.38;10261814;28;20047;-73
2023/04/25 18:25:53;;;;;;;3.45;1.42;;;;;;;11.88;40.82;100063.38;10263030;28;20398;-75
2023/04/25 18:30:55;;;;;;;5.03;1.75;;;;;;;11.79;41.19;100070.34;10270503;28;20061;-73
2023/04/25 18:36:00;;;;;;;3.35;1.65;;;;;;;11.74;41.24;100077.06;10274740;28;20062;-74
2023/04/25 18:41:01;;;;;;;;;;;;;;;11.34;42.23;100085.91;10262992;28;20192;-74
2023/04/25 18:46:23;;;;;;;2.97;1.67;;;;;;;11.56;42.88;100091.06;10267117;28;19929;-74
2023/04/25 18:51:30;;;;;;;3.88;1.63;;;;;;;11.54;41.98;100097.50;10283056;28;20082;-74
2023/04/25 18:56:32;;;;;;;4.25;2.80;;;;;;;11.39;43.06;100097.00;10309054;28;20108;-76
2023/04/25 19:01:33;;;;;;;2.67;1.58;;;;;;;11.34;43.25;100100.06;10286061;28;20056;-77
2023/04/25 19:06:35;;;;;;;3.30;1.80;;;;;;;11.21;43.06;100118.91;10278128;28;20082;-76
2023/04/25 19:11:37;;;;;;;5.03;1.40;;;;;;;11.06;43.37;100125.53;10259495;28;20122;-74
2023/04/25 19:16:38;;;;;;;4.43;1.38;;;;;;;10.84;43.63;100122.03;10267906;28;20153;-75
2023/04/25 19:21:40;;;;;;;5.15;1.77;;;;;;;10.78;44.06;100125.22;10268926;28;20065;-77
2023/04/25 19:26:42;;;;;;;5.45;1.65;;;;;;;10.73;44.50;100130.06;10313812;28;20077;-76
2023/04/25 19:31:44;;;;;;;2.75;1.40;;;;;;;10.59;44.89;100133.88;10306929;28;20058;-76
2023/04/25 19:36:45;;;;;;;4.15;1.60;;;;;;;10.74;44.36;100145.06;10298342;28;20112;-76
2023/04/25 19:41:47;;;;;;;4.40;1.65;;;;;;;10.95;44.31;100137.94;10296868;28;20604;-75
2023/04/25 19:46:48;;;;;;;4.85;2.15;;;;;;;11.08;44.65;100151.09;10299363;28;20070;-76
2023/04/25 19:51:50;;;;;;;5.00;1.70;;;;;;;11.02;43.78;100156.94;10305172;28;20050;-77
2023/04/25 19:56:52;;;;;;;4.30;1.90;;;;;;;10.83;44.41;100151.47;10294826;28;20054;-77
2023/04/25 20:01:53;;;;;;;2.67;1.17;;;;;;;10.77;43.56;100142.16;10292922;28;20054;-77
2023/04/25 20:06:55;;;;;;;4.18;1.45;;;;;;;10.78;43.17;100149.19;10287300;28;20054;-76
2023/04/25 20:11:58;;;;;;;4.43;1.27;;;;;;;10.75;42.18;100150.28;10277842;28;20721;-77
2023/04/25 20:16:59;;;;;;;3.20;1.33;;;;;;;10.78;41.70;100151.84;10275532;28;20065;-74
2023/04/25 20:22:01;;;;;;;3.08;1.13;;;;;;;10.76;42.32;100167.09;10275036;28;20178;-74
2023/04/25 20:27:02;;;;;;;2.03;1.20;;;;;;;10.62;43.02;100154.91;10262992;28;20285;-71
2023/04/25 20:32:05;;;;;;;6.63;1.73;;;;;;;10.72;43.13;100165.63;10273147;28;20525;-71
2023/04/25 20:37:07;;;;;;;3.17;1.33;;;;;;;10.74;42.94;100175.19;10299903;28;20128;-72
2023/04/25 20:42:09;;;;;;;4.28;1.92;;;;;;;10.72;42.84;100176.28;10299786;28;20085;-72
2023/04/25 20:47:10;;;;;;;2.38;1.23;;;;;;;10.53;43.29;100164.50;10303570;28;20058;-72
2023/04/25 20:52:12;;;;;;;1.85;1.20;;;;;;;10.49;43.69;100178.19;10303962;28;20690;-70
2023/04/25 20:57:13;;;;;;;4.40;1.30;;;;;;;10.36;43.76;100173.03;10308994;28;20061;-72
2023/04/25 21:02:14;;;;;;;2.67;1.58;;;;;;;10.33;44.01;100178.53;10293556;28;20133;-72
2023/04/25 21:07:16;;;;;;;3.08;1.42;;;;;;;10.27;44.50;100185.22;10311446;28;20046;-71
2023/04/25 21:12:17;;;;;;;3.03;1.45;;;;;;;10.17;44.57;100181.59;10293371;28;20691;-70
2023/04/25 21:17:19;;;;;;;6.63;1.55;;;;;;;10.15;45.26;100189.69;10301489;28;20090;-70
2023/04/25 21:22:20;;;;;;;2.03;1.45;;;;;;;10.08;45.43;100196.47;10260717;28;20050;-71
2023/04/25 21:27:21;;;;;;;3.30;1.33;;;;;;;10.07;46.54;100195.63;10262592;28;20050;-71
2023/04/25 21:32:23;;;;;;;5.75;1.40;;;;;;;10.04;45.83;100192.34;10277511;28;20077;-68
2023/04/25 21:37:24;;;;;;;3.45;1.88;;;;;;;10.04;45.95;100190.56;10275088;28;20441;-70
2023/04/25 21:42:26;;;;;;;5.22;1.40;;;;;;;10.00;46.03;100202.41;10273560;28;20054;-72
2023/04/25 21:47:28;;;;;;;3.85;1.95;;;;;;;9.95;46.77;100195.75;10260100;28;20073;-70
2023/04/25 21:52:30;;;;;;;4.05;1.55;;;;;;;9.95;46.40;100196.59;10274497;28;20058;-71
2023/04/25 21:57:31;;;;;;;4.38;1.75;;;;;;;9.88;46.33;100190.91;10273476;28;20057;-71
2023/04/25 22:02:35;;;;;;;4.03;1.48;;;;;;;9.97;46.36;100207.09;10253542;28;20176;-70
2023/04/25 22:07:37;;;;;;;3.03;2.40;;;;;;;9.95;46.82;100209.03;10271709;28;20058;-70
2023/04/25 22:12:38;;;;;;;3.08;1.48;;;;;;;9.94;46.27;100210.00;10272924;28;20050;-72
2023/04/25 22:17:39;;;;;;;5.10;1.77;;;;;;;9.98;47.37;100222.09;10271070;28;20062;-72
2023/04/25 22:22:45;;;;;;;5.25;1.60;;;;;;;9.99;46.65;100215.81;10269922;28;20540;-70
2023/04/25 22:27:46;;;;;;;2.67;1.38;;;;;;;10.00;46.58;100223.69;10260911;28;20054;-71
2023/04/25 22:32:48;;;;;;;6.03;1.90;;;;;;;10.01;47.38;100235.16;10279511;28;20129;-70
2023/04/25 22:37:50;;;;;;;3.90;1.35;;;;;;;9.99;46.70;100242.41;10273526;28;20065;-70
2023/04/25 22:42:51;;;;;;;2.00;1.02;;;;;;;10.01;46.66;100245.78;10283527;28;20042;-70
2023/04/25 22:47:53;;;;;;;2.92;1.67;;;;;;;10.01;47.06;100248.44;10271876;28;20054;-70
2023/04/25 22:52:54;;;;;;;2.97;1.35;;;;;;;9.91;46.75;100251.81;10263230;28;20043;-71
2023/04/25 22:57:56;;;;;;;3.60;1.60;;;;;;;9.93;47.49;100253.53;10269380;28;20077;-70
2023/04/25 23:02:58;;;;;;;4.93;1.90;;;;;;;9.94;48.00;100261.38;10270057;28;20157;-71
2023/04/25 23:07:59;;;;;;;2.63;1.40;;;;;;;9.96;47.55;100263.94;10251401;28;20062;-68
2023/04/25 23:13:00;;;;;;;5.95;2.13;;;;;;;9.93;47.40;100267.66;10259590;28;20054;-70
2023/04/25 23:18:02;;;;;;;3.28;1.55;;;;;;;9.99;47.97;100271.66;10267630;28;20050;-72
2023/04/25 23:23:03;;;;;;;4.43;1.45;;;;;;;9.75;48.82;100277.06;10266550;28;20569;-69